Hauptseite
METAR-TAF:

METAR-TAF

Flughäfen :

Flughafen Charlottetown

Charlottetown, Prinz-Edward-Insel, Kanada

Breite: 46-17N, Länge: 063-08W, Höhe: 48 m

Beobachtung

Neuester Wetterbericht von vor 54 Minuten, um 21:00 UTC
Wind 6 kt aus Süd/Südwest
Temperatur -7°C
Luftfeuchtigkeit 62%
Luftdruck 1017 hPa
Sichtweite: 24.1 km
Himmel klar

METAR: CYYG 252100Z 20006KT 15SM SKC M07/M13 A3002 RMK SLP172

Zeit: 17:54 (21:54 UTC)

Prognose

Neuester Wetterbericht von vor 4 Stunden und 14 Minuten, um 17:40 UTC
Gültige Prognose vom 25 um 18 UTC bis 26 um 06 UTC
Wind 10 kt aus West/Südwest
Sichtweite: 10 km
Leicht bewölkt in der Höhe von 5000 ft
Übergehend zu
vom 25 um 20 UTC bis 25 um 22 UTC
Wind 5 kt aus Süd

TAF: CYYG 251740Z 2518/2606 24010KT P6SM FEW050 BECMG 2520/2522 18005KT RMK NXT FCST BY 260000Z

Wetterbeobachtungen und Prognosen von mehr als 4000 Flughäfen (METAR und TAF Bericht).

Die verfügbaren Stationen werden durch gelbe und rote Markierungen auf der Karte dargestellt.

Führen Sie die Maus auf sie, um den Namen der Station zu sehen.

Darauf klicken, um die Beobachtung von Wetterbeobachtungen und Prognosen zu sehen.

Um die Karte zu ändern : klicken Sie auf den grünen Tasten mit einem schwarzen Kreuz Zum Vergrößern, auf den grünen Button mit einem Gedankenstrich zu verkleinern, oder auf die grünen Pfeile für benachbarte Karten.


METAR-TAF: